sensor_id;sensor_type;location;lat;lon;timestamp;P1;durP1;ratioP1;P2;durP2;ratioP2
48203;SDS011;33994;50.998;5.864;2023-12-14T00:01:08;33.72;;;17.42;;
48203;SDS011;33994;50.998;5.864;2023-12-14T00:04:12;35.65;;;17.98;;
48203;SDS011;33994;50.998;5.864;2023-12-14T00:07:16;35.72;;;18.80;;
48203;SDS011;33994;50.998;5.864;2023-12-14T00:10:19;41.00;;;19.92;;
48203;SDS011;33994;50.998;5.864;2023-12-14T00:13:22;44.28;;;20.13;;
48203;SDS011;33994;50.998;5.864;2023-12-14T00:16:25;40.42;;;19.63;;
48203;SDS011;33994;50.998;5.864;2023-12-14T00:19:30;46.90;;;21.63;;
48203;SDS011;33994;50.998;5.864;2023-12-14T00:22:33;49.47;;;21.63;;
48203;SDS011;33994;50.998;5.864;2023-12-14T00:25:36;51.00;;;22.92;;
48203;SDS011;33994;50.998;5.864;2023-12-14T00:28:40;49.95;;;23.38;;
48203;SDS011;33994;50.998;5.864;2023-12-14T00:31:43;52.78;;;23.50;;
48203;SDS011;33994;50.998;5.864;2023-12-14T00:34:47;51.85;;;23.75;;
48203;SDS011;33994;50.998;5.864;2023-12-14T00:37:50;48.65;;;22.85;;
48203;SDS011;33994;50.998;5.864;2023-12-14T00:40:54;57.38;;;26.70;;
48203;SDS011;33994;50.998;5.864;2023-12-14T00:43:57;55.30;;;25.60;;
48203;SDS011;33994;50.998;5.864;2023-12-14T00:47:00;53.78;;;25.30;;
48203;SDS011;33994;50.998;5.864;2023-12-14T00:50:05;65.38;;;25.50;;
48203;SDS011;33994;50.998;5.864;2023-12-14T00:53:09;57.75;;;26.30;;
48203;SDS011;33994;50.998;5.864;2023-12-14T00:56:13;61.78;;;25.58;;
48203;SDS011;33994;50.998;5.864;2023-12-14T00:59:16;58.83;;;25.98;;
48203;SDS011;33994;50.998;5.864;2023-12-14T01:02:19;68.47;;;27.63;;
48203;SDS011;33994;50.998;5.864;2023-12-14T01:05:24;66.75;;;27.83;;
48203;SDS011;33994;50.998;5.864;2023-12-14T01:08:27;65.80;;;28.48;;
48203;SDS011;33994;50.998;5.864;2023-12-14T01:11:30;64.70;;;26.60;;
48203;SDS011;33994;50.998;5.864;2023-12-14T01:14:33;64.13;;;27.20;;
48203;SDS011;33994;50.998;5.864;2023-12-14T01:17:36;66.78;;;26.88;;
48203;SDS011;33994;50.998;5.864;2023-12-14T01:20:41;57.55;;;26.35;;
48203;SDS011;33994;50.998;5.864;2023-12-14T01:23:44;52.15;;;23.55;;
48203;SDS011;33994;50.998;5.864;2023-12-14T01:26:47;45.20;;;21.52;;
48203;SDS011;33994;50.998;5.864;2023-12-14T01:29:51;47.28;;;21.90;;
48203;SDS011;33994;50.998;5.864;2023-12-14T01:32:54;45.38;;;21.40;;
48203;SDS011;33994;50.998;5.864;2023-12-14T01:35:58;49.65;;;22.52;;
48203;SDS011;33994;50.998;5.864;2023-12-14T01:39:01;42.63;;;22.45;;
48203;SDS011;33994;50.998;5.864;2023-12-14T01:42:05;43.20;;;20.85;;
48203;SDS011;33994;50.998;5.864;2023-12-14T01:45:08;50.63;;;21.27;;
48203;SDS011;33994;50.998;5.864;2023-12-14T01:48:12;44.60;;;21.58;;
48203;SDS011;33994;50.998;5.864;2023-12-14T01:51:16;47.13;;;22.48;;
48203;SDS011;33994;50.998;5.864;2023-12-14T01:54:20;45.45;;;19.33;;
48203;SDS011;33994;50.998;5.864;2023-12-14T01:57:23;46.08;;;20.48;;
48203;SDS011;33994;50.998;5.864;2023-12-14T02:00:28;44.83;;;20.90;;
48203;SDS011;33994;50.998;5.864;2023-12-14T02:03:43;39.83;;;19.45;;
48203;SDS011;33994;50.998;5.864;2023-12-14T02:06:48;42.38;;;19.65;;
48203;SDS011;33994;50.998;5.864;2023-12-14T02:09:51;46.45;;;19.75;;
48203;SDS011;33994;50.998;5.864;2023-12-14T02:12:54;48.13;;;21.45;;
48203;SDS011;33994;50.998;5.864;2023-12-14T02:15:57;42.80;;;22.73;;
48203;SDS011;33994;50.998;5.864;2023-12-14T02:19:01;37.92;;;19.92;;
48203;SDS011;33994;50.998;5.864;2023-12-14T02:22:05;45.85;;;21.67;;
48203;SDS011;33994;50.998;5.864;2023-12-14T02:25:09;41.50;;;20.52;;
48203;SDS011;33994;50.998;5.864;2023-12-14T02:28:13;39.97;;;21.35;;
48203;SDS011;33994;50.998;5.864;2023-12-14T02:31:17;37.67;;;19.42;;
48203;SDS011;33994;50.998;5.864;2023-12-14T02:34:22;46.55;;;20.33;;
48203;SDS011;33994;50.998;5.864;2023-12-14T02:37:25;38.75;;;19.23;;
48203;SDS011;33994;50.998;5.864;2023-12-14T02:40:30;39.85;;;18.80;;
48203;SDS011;33994;50.998;5.864;2023-12-14T02:43:33;41.05;;;18.65;;
48203;SDS011;33994;50.998;5.864;2023-12-14T02:46:36;35.17;;;18.42;;
48203;SDS011;33994;50.998;5.864;2023-12-14T02:49:39;32.17;;;16.98;;
48203;SDS011;33994;50.998;5.864;2023-12-14T02:52:43;36.58;;;15.85;;
48203;SDS011;33994;50.998;5.864;2023-12-14T02:55:47;29.30;;;14.73;;
48203;SDS011;33994;50.998;5.864;2023-12-14T02:58:50;31.60;;;15.73;;
48203;SDS011;33994;50.998;5.864;2023-12-14T03:01:53;30.52;;;16.35;;
48203;SDS011;33994;50.998;5.864;2023-12-14T03:04:57;30.52;;;15.73;;
48203;SDS011;33994;50.998;5.864;2023-12-14T03:08:00;31.40;;;16.05;;
48203;SDS011;33994;50.998;5.864;2023-12-14T03:11:05;30.80;;;16.90;;
48203;SDS011;33994;50.998;5.864;2023-12-14T03:14:08;32.78;;;17.70;;
48203;SDS011;33994;50.998;5.864;2023-12-14T03:17:11;30.20;;;15.73;;
48203;SDS011;33994;50.998;5.864;2023-12-14T03:20:14;28.90;;;14.15;;
48203;SDS011;33994;50.998;5.864;2023-12-14T03:23:17;30.70;;;15.45;;
48203;SDS011;33994;50.998;5.864;2023-12-14T03:26:22;28.30;;;14.75;;
48203;SDS011;33994;50.998;5.864;2023-12-14T03:29:25;35.00;;;16.15;;
48203;SDS011;33994;50.998;5.864;2023-12-14T03:32:29;35.33;;;16.85;;
48203;SDS011;33994;50.998;5.864;2023-12-14T03:35:32;38.60;;;16.67;;
48203;SDS011;33994;50.998;5.864;2023-12-14T03:38:35;33.65;;;16.05;;
48203;SDS011;33994;50.998;5.864;2023-12-14T03:41:39;29.70;;;15.95;;
48203;SDS011;33994;50.998;5.864;2023-12-14T03:44:42;32.35;;;15.63;;
48203;SDS011;33994;50.998;5.864;2023-12-14T03:47:46;31.67;;;15.43;;
48203;SDS011;33994;50.998;5.864;2023-12-14T03:50:49;33.53;;;14.65;;
48203;SDS011;33994;50.998;5.864;2023-12-14T03:53:52;31.20;;;14.50;;
48203;SDS011;33994;50.998;5.864;2023-12-14T03:56:57;26.95;;;13.70;;
48203;SDS011;33994;50.998;5.864;2023-12-14T04:00:00;30.73;;;14.18;;
48203;SDS011;33994;50.998;5.864;2023-12-14T04:03:03;26.75;;;13.75;;
48203;SDS011;33994;50.998;5.864;2023-12-14T04:06:06;25.60;;;14.13;;
48203;SDS011;33994;50.998;5.864;2023-12-14T04:09:10;32.80;;;15.27;;
48203;SDS011;33994;50.998;5.864;2023-12-14T04:12:14;31.08;;;14.65;;
48203;SDS011;33994;50.998;5.864;2023-12-14T04:15:18;33.20;;;16.60;;
48203;SDS011;33994;50.998;5.864;2023-12-14T04:18:21;29.95;;;14.38;;
48203;SDS011;33994;50.998;5.864;2023-12-14T04:21:24;32.65;;;15.93;;
48203;SDS011;33994;50.998;5.864;2023-12-14T04:24:27;40.13;;;15.65;;
48203;SDS011;33994;50.998;5.864;2023-12-14T04:27:32;35.90;;;17.13;;
48203;SDS011;33994;50.998;5.864;2023-12-14T04:30:35;33.28;;;16.95;;
48203;SDS011;33994;50.998;5.864;2023-12-14T04:33:38;37.15;;;16.73;;
48203;SDS011;33994;50.998;5.864;2023-12-14T04:36:41;33.30;;;17.02;;
48203;SDS011;33994;50.998;5.864;2023-12-14T04:39:45;36.78;;;16.63;;
48203;SDS011;33994;50.998;5.864;2023-12-14T04:42:49;37.70;;;16.23;;
48203;SDS011;33994;50.998;5.864;2023-12-14T04:45:53;38.55;;;17.23;;
48203;SDS011;33994;50.998;5.864;2023-12-14T04:48:56;34.72;;;17.08;;
48203;SDS011;33994;50.998;5.864;2023-12-14T04:51:59;36.90;;;15.95;;
48203;SDS011;33994;50.998;5.864;2023-12-14T04:55:02;35.95;;;17.42;;
48203;SDS011;33994;50.998;5.864;2023-12-14T04:58:07;39.42;;;16.95;;
48203;SDS011;33994;50.998;5.864;2023-12-14T05:01:10;33.55;;;14.93;;
48203;SDS011;33994;50.998;5.864;2023-12-14T05:04:14;32.63;;;14.68;;
48203;SDS011;33994;50.998;5.864;2023-12-14T05:07:17;31.23;;;14.65;;
48203;SDS011;33994;50.998;5.864;2023-12-14T05:10:20;29.88;;;14.35;;
48203;SDS011;33994;50.998;5.864;2023-12-14T05:13:25;33.47;;;14.95;;
48203;SDS011;33994;50.998;5.864;2023-12-14T05:16:28;34.25;;;15.65;;
48203;SDS011;33994;50.998;5.864;2023-12-14T05:19:32;32.85;;;15.07;;
48203;SDS011;33994;50.998;5.864;2023-12-14T05:22:35;28.50;;;12.98;;
48203;SDS011;33994;50.998;5.864;2023-12-14T05:25:38;30.88;;;14.25;;
48203;SDS011;33994;50.998;5.864;2023-12-14T05:28:43;30.08;;;14.50;;
48203;SDS011;33994;50.998;5.864;2023-12-14T05:31:46;30.75;;;15.70;;
48203;SDS011;33994;50.998;5.864;2023-12-14T05:34:49;29.08;;;15.02;;
48203;SDS011;33994;50.998;5.864;2023-12-14T05:37:52;33.40;;;14.32;;
48203;SDS011;33994;50.998;5.864;2023-12-14T05:40:55;35.38;;;15.02;;
48203;SDS011;33994;50.998;5.864;2023-12-14T05:44:00;35.47;;;14.68;;
48203;SDS011;33994;50.998;5.864;2023-12-14T05:47:03;32.90;;;14.60;;
48203;SDS011;33994;50.998;5.864;2023-12-14T05:50:06;32.90;;;14.80;;
48203;SDS011;33994;50.998;5.864;2023-12-14T05:53:10;37.45;;;14.93;;
48203;SDS011;33994;50.998;5.864;2023-12-14T05:56:13;33.50;;;14.93;;
48203;SDS011;33994;50.998;5.864;2023-12-14T05:59:17;34.20;;;14.85;;
48203;SDS011;33994;50.998;5.864;2023-12-14T06:02:20;38.60;;;15.70;;
48203;SDS011;33994;50.998;5.864;2023-12-14T06:05:24;31.60;;;14.68;;
48203;SDS011;33994;50.998;5.864;2023-12-14T06:08:27;38.40;;;14.82;;
48203;SDS011;33994;50.998;5.864;2023-12-14T06:11:30;33.60;;;14.98;;
48203;SDS011;33994;50.998;5.864;2023-12-14T06:14:34;37.72;;;15.25;;
48203;SDS011;33994;50.998;5.864;2023-12-14T06:17:38;33.67;;;14.90;;
48203;SDS011;33994;50.998;5.864;2023-12-14T06:20:41;35.65;;;14.85;;
48203;SDS011;33994;50.998;5.864;2023-12-14T06:23:45;37.70;;;15.63;;
48203;SDS011;33994;50.998;5.864;2023-12-14T06:26:48;37.40;;;16.80;;
48203;SDS011;33994;50.998;5.864;2023-12-14T06:29:52;44.55;;;17.65;;
48203;SDS011;33994;50.998;5.864;2023-12-14T06:32:56;45.25;;;17.40;;
48203;SDS011;33994;50.998;5.864;2023-12-14T06:36:02;48.80;;;17.88;;
48203;SDS011;33994;50.998;5.864;2023-12-14T06:39:06;46.67;;;18.55;;
48203;SDS011;33994;50.998;5.864;2023-12-14T06:42:09;45.47;;;19.20;;
48203;SDS011;33994;50.998;5.864;2023-12-14T06:45:14;47.13;;;19.08;;
48203;SDS011;33994;50.998;5.864;2023-12-14T06:48:17;47.85;;;19.30;;
48203;SDS011;33994;50.998;5.864;2023-12-14T06:51:21;46.40;;;20.10;;
48203;SDS011;33994;50.998;5.864;2023-12-14T06:54:24;47.40;;;19.50;;
48203;SDS011;33994;50.998;5.864;2023-12-14T06:57:27;46.17;;;19.48;;
48203;SDS011;33994;50.998;5.864;2023-12-14T07:00:31;39.60;;;18.90;;
48203;SDS011;33994;50.998;5.864;2023-12-14T07:03:35;41.38;;;18.30;;
48203;SDS011;33994;50.998;5.864;2023-12-14T07:06:38;38.17;;;17.73;;
48203;SDS011;33994;50.998;5.864;2023-12-14T07:09:41;36.22;;;17.48;;
48203;SDS011;33994;50.998;5.864;2023-12-14T07:12:45;35.60;;;17.40;;
48203;SDS011;33994;50.998;5.864;2023-12-14T07:15:49;38.00;;;17.70;;
48203;SDS011;33994;50.998;5.864;2023-12-14T07:18:52;32.40;;;15.82;;
48203;SDS011;33994;50.998;5.864;2023-12-14T07:21:55;36.20;;;17.15;;
48203;SDS011;33994;50.998;5.864;2023-12-14T07:24:59;37.85;;;17.25;;
48203;SDS011;33994;50.998;5.864;2023-12-14T07:28:02;33.10;;;16.88;;
48203;SDS011;33994;50.998;5.864;2023-12-14T07:31:06;34.65;;;16.75;;
48203;SDS011;33994;50.998;5.864;2023-12-14T07:34:09;39.30;;;16.63;;
48203;SDS011;33994;50.998;5.864;2023-12-14T07:37:13;34.78;;;16.55;;
48203;SDS011;33994;50.998;5.864;2023-12-14T07:40:16;38.15;;;17.45;;
48203;SDS011;33994;50.998;5.864;2023-12-14T07:43:19;33.85;;;17.25;;
48203;SDS011;33994;50.998;5.864;2023-12-14T07:46:24;34.85;;;16.05;;
48203;SDS011;33994;50.998;5.864;2023-12-14T07:49:27;36.10;;;17.48;;
48203;SDS011;33994;50.998;5.864;2023-12-14T07:52:30;34.63;;;15.90;;
48203;SDS011;33994;50.998;5.864;2023-12-14T07:55:33;32.25;;;15.93;;
48203;SDS011;33994;50.998;5.864;2023-12-14T07:58:37;35.13;;;16.33;;
48203;SDS011;33994;50.998;5.864;2023-12-14T08:01:41;29.45;;;15.32;;
48203;SDS011;33994;50.998;5.864;2023-12-14T08:04:44;37.70;;;16.40;;
48203;SDS011;33994;50.998;5.864;2023-12-14T08:07:48;36.35;;;17.90;;
48203;SDS011;33994;50.998;5.864;2023-12-14T08:10:51;31.35;;;15.43;;
48203;SDS011;33994;50.998;5.864;2023-12-14T08:13:54;33.65;;;15.38;;
48203;SDS011;33994;50.998;5.864;2023-12-14T08:16:59;31.70;;;15.88;;
48203;SDS011;33994;50.998;5.864;2023-12-14T08:20:02;32.25;;;15.57;;
48203;SDS011;33994;50.998;5.864;2023-12-14T08:23:06;30.45;;;15.50;;
48203;SDS011;33994;50.998;5.864;2023-12-14T08:26:09;28.08;;;14.88;;
48203;SDS011;33994;50.998;5.864;2023-12-14T08:29:12;27.58;;;14.93;;
48203;SDS011;33994;50.998;5.864;2023-12-14T08:32:17;29.13;;;15.70;;
48203;SDS011;33994;50.998;5.864;2023-12-14T08:35:20;31.55;;;15.10;;
48203;SDS011;33994;50.998;5.864;2023-12-14T08:38:23;27.75;;;15.25;;
48203;SDS011;33994;50.998;5.864;2023-12-14T08:41:26;30.85;;;15.38;;
48203;SDS011;33994;50.998;5.864;2023-12-14T08:44:30;27.17;;;15.05;;
48203;SDS011;33994;50.998;5.864;2023-12-14T08:47:34;26.58;;;14.38;;
48203;SDS011;33994;50.998;5.864;2023-12-14T08:50:37;30.73;;;15.02;;
48203;SDS011;33994;50.998;5.864;2023-12-14T08:53:40;27.75;;;14.38;;
48203;SDS011;33994;50.998;5.864;2023-12-14T08:56:43;28.48;;;14.40;;
48203;SDS011;33994;50.998;5.864;2023-12-14T08:59:46;31.52;;;15.48;;
48203;SDS011;33994;50.998;5.864;2023-12-14T09:02:51;32.60;;;15.98;;
48203;SDS011;33994;50.998;5.864;2023-12-14T09:05:54;29.95;;;15.15;;
48203;SDS011;33994;50.998;5.864;2023-12-14T09:08:57;32.60;;;15.43;;
48203;SDS011;33994;50.998;5.864;2023-12-14T09:12:01;30.38;;;16.02;;
48203;SDS011;33994;50.998;5.864;2023-12-14T09:15:04;33.00;;;16.67;;
48203;SDS011;33994;50.998;5.864;2023-12-14T09:18:09;38.90;;;17.33;;
48203;SDS011;33994;50.998;5.864;2023-12-14T09:21:12;30.63;;;16.48;;
48203;SDS011;33994;50.998;5.864;2023-12-14T09:24:15;30.83;;;16.50;;
48203;SDS011;33994;50.998;5.864;2023-12-14T09:27:18;33.95;;;16.75;;
48203;SDS011;33994;50.998;5.864;2023-12-14T09:30:21;30.85;;;16.10;;
48203;SDS011;33994;50.998;5.864;2023-12-14T09:33:26;34.10;;;18.05;;
48203;SDS011;33994;50.998;5.864;2023-12-14T09:36:29;29.83;;;15.93;;
48203;SDS011;33994;50.998;5.864;2023-12-14T09:39:32;31.67;;;16.08;;
48203;SDS011;33994;50.998;5.864;2023-12-14T09:42:36;31.75;;;15.70;;
48203;SDS011;33994;50.998;5.864;2023-12-14T09:45:41;29.15;;;16.05;;
48203;SDS011;33994;50.998;5.864;2023-12-14T09:48:47;33.65;;;16.52;;
48203;SDS011;33994;50.998;5.864;2023-12-14T09:51:53;30.95;;;14.05;;
48203;SDS011;33994;50.998;5.864;2023-12-14T09:54:55;34.40;;;16.42;;
48203;SDS011;33994;50.998;5.864;2023-12-14T09:57:59;35.70;;;17.25;;
48203;SDS011;33994;50.998;5.864;2023-12-14T10:01:02;31.40;;;15.88;;
48203;SDS011;33994;50.998;5.864;2023-12-14T10:04:24;30.65;;;15.70;;
48203;SDS011;33994;50.998;5.864;2023-12-14T10:07:27;35.83;;;16.65;;
48203;SDS011;33994;50.998;5.864;2023-12-14T10:10:31;32.08;;;16.00;;
48203;SDS011;33994;50.998;5.864;2023-12-14T10:13:37;32.92;;;16.25;;
48203;SDS011;33994;50.998;5.864;2023-12-14T10:16:41;30.70;;;14.70;;
48203;SDS011;33994;50.998;5.864;2023-12-14T10:19:46;28.52;;;13.18;;
48203;SDS011;33994;50.998;5.864;2023-12-14T10:22:49;30.92;;;14.27;;
48203;SDS011;33994;50.998;5.864;2023-12-14T10:25:52;26.98;;;14.48;;
48203;SDS011;33994;50.998;5.864;2023-12-14T10:28:56;25.75;;;13.23;;
48203;SDS011;33994;50.998;5.864;2023-12-14T10:31:59;24.10;;;12.88;;
48203;SDS011;33994;50.998;5.864;2023-12-14T10:35:04;27.90;;;14.55;;
48203;SDS011;33994;50.998;5.864;2023-12-14T10:38:08;27.45;;;13.20;;
48203;SDS011;33994;50.998;5.864;2023-12-14T10:41:12;28.73;;;14.43;;
48203;SDS011;33994;50.998;5.864;2023-12-14T10:44:16;31.98;;;14.18;;
48203;SDS011;33994;50.998;5.864;2023-12-14T10:47:21;29.15;;;14.38;;
48203;SDS011;33994;50.998;5.864;2023-12-14T10:50:25;28.23;;;14.18;;
48203;SDS011;33994;50.998;5.864;2023-12-14T10:53:30;29.75;;;14.32;;
48203;SDS011;33994;50.998;5.864;2023-12-14T10:56:35;30.23;;;13.75;;
48203;SDS011;33994;50.998;5.864;2023-12-14T10:59:38;25.75;;;14.32;;
48203;SDS011;33994;50.998;5.864;2023-12-14T11:02:45;33.05;;;14.40;;
48203;SDS011;33994;50.998;5.864;2023-12-14T11:05:50;35.15;;;15.73;;
48203;SDS011;33994;50.998;5.864;2023-12-14T11:08:54;32.30;;;14.65;;
48203;SDS011;33994;50.998;5.864;2023-12-14T11:11:59;26.50;;;13.57;;
48203;SDS011;33994;50.998;5.864;2023-12-14T11:15:02;33.80;;;15.25;;
48203;SDS011;33994;50.998;5.864;2023-12-14T11:18:20;32.03;;;14.95;;
48203;SDS011;33994;50.998;5.864;2023-12-14T11:21:29;30.17;;;14.70;;
48203;SDS011;33994;50.998;5.864;2023-12-14T11:24:32;26.27;;;13.57;;
48203;SDS011;33994;50.998;5.864;2023-12-14T11:27:37;30.50;;;14.73;;
48203;SDS011;33994;50.998;5.864;2023-12-14T11:30:45;32.38;;;14.55;;
48203;SDS011;33994;50.998;5.864;2023-12-14T11:33:49;28.23;;;13.48;;
48203;SDS011;33994;50.998;5.864;2023-12-14T11:36:54;27.35;;;12.93;;
48203;SDS011;33994;50.998;5.864;2023-12-14T11:39:58;24.08;;;11.70;;
48203;SDS011;33994;50.998;5.864;2023-12-14T11:43:01;22.58;;;11.55;;
48203;SDS011;33994;50.998;5.864;2023-12-14T11:46:04;24.05;;;11.93;;
48203;SDS011;33994;50.998;5.864;2023-12-14T11:49:07;22.73;;;11.80;;
48203;SDS011;33994;50.998;5.864;2023-12-14T11:52:12;23.33;;;11.38;;
48203;SDS011;33994;50.998;5.864;2023-12-14T11:55:15;21.23;;;10.95;;
48203;SDS011;33994;50.998;5.864;2023-12-14T11:58:18;19.30;;;10.60;;
48203;SDS011;33994;50.998;5.864;2023-12-14T12:01:22;21.77;;;10.57;;
48203;SDS011;33994;50.998;5.864;2023-12-14T12:04:25;19.73;;;10.43;;
48203;SDS011;33994;50.998;5.864;2023-12-14T12:07:30;20.98;;;10.15;;
48203;SDS011;33994;50.998;5.864;2023-12-14T12:10:33;22.55;;;11.07;;
48203;SDS011;33994;50.998;5.864;2023-12-14T12:13:36;19.88;;;10.60;;
48203;SDS011;33994;50.998;5.864;2023-12-14T12:16:40;21.50;;;11.10;;
48203;SDS011;33994;50.998;5.864;2023-12-14T12:19:43;23.42;;;11.13;;
48203;SDS011;33994;50.998;5.864;2023-12-14T12:22:47;20.90;;;11.18;;
48203;SDS011;33994;50.998;5.864;2023-12-14T12:25:50;22.45;;;11.30;;
48203;SDS011;33994;50.998;5.864;2023-12-14T12:28:53;17.45;;;9.90;;
48203;SDS011;33994;50.998;5.864;2023-12-14T12:31:56;19.30;;;9.43;;
48203;SDS011;33994;50.998;5.864;2023-12-14T12:34:59;18.48;;;9.63;;
48203;SDS011;33994;50.998;5.864;2023-12-14T12:38:03;19.20;;;9.35;;
48203;SDS011;33994;50.998;5.864;2023-12-14T12:41:06;17.92;;;9.35;;
48203;SDS011;33994;50.998;5.864;2023-12-14T12:44:09;16.17;;;8.68;;
48203;SDS011;33994;50.998;5.864;2023-12-14T12:47:12;21.00;;;8.75;;
48203;SDS011;33994;50.998;5.864;2023-12-14T12:50:16;16.52;;;7.95;;
48203;SDS011;33994;50.998;5.864;2023-12-14T12:53:21;17.02;;;8.50;;
48203;SDS011;33994;50.998;5.864;2023-12-14T12:56:25;13.68;;;7.72;;
48203;SDS011;33994;50.998;5.864;2023-12-14T12:59:28;12.05;;;6.88;;
48203;SDS011;33994;50.998;5.864;2023-12-14T13:02:31;12.57;;;7.07;;
48203;SDS011;33994;50.998;5.864;2023-12-14T13:05:34;11.82;;;7.22;;
48203;SDS011;33994;50.998;5.864;2023-12-14T13:08:38;13.23;;;7.45;;
48203;SDS011;33994;50.998;5.864;2023-12-14T13:11:41;10.45;;;6.72;;
48203;SDS011;33994;50.998;5.864;2023-12-14T13:14:44;12.43;;;7.28;;
48203;SDS011;33994;50.998;5.864;2023-12-14T13:17:47;11.50;;;7.05;;
48203;SDS011;33994;50.998;5.864;2023-12-14T13:20:50;18.80;;;7.90;;
48203;SDS011;33994;50.998;5.864;2023-12-14T13:23:55;13.45;;;7.65;;
48203;SDS011;33994;50.998;5.864;2023-12-14T13:26:58;12.38;;;7.47;;
48203;SDS011;33994;50.998;5.864;2023-12-14T13:30:02;11.30;;;7.50;;
48203;SDS011;33994;50.998;5.864;2023-12-14T13:33:05;13.70;;;7.32;;
48203;SDS011;33994;50.998;5.864;2023-12-14T13:36:08;11.10;;;7.20;;
48203;SDS011;33994;50.998;5.864;2023-12-14T13:39:14;12.75;;;7.32;;
48203;SDS011;33994;50.998;5.864;2023-12-14T13:42:17;12.88;;;7.25;;
48203;SDS011;33994;50.998;5.864;2023-12-14T13:45:20;13.35;;;6.95;;
48203;SDS011;33994;50.998;5.864;2023-12-14T13:48:23;11.38;;;7.32;;
48203;SDS011;33994;50.998;5.864;2023-12-14T13:51:27;11.88;;;7.22;;
48203;SDS011;33994;50.998;5.864;2023-12-14T13:54:31;10.55;;;6.07;;
48203;SDS011;33994;50.998;5.864;2023-12-14T13:57:34;10.25;;;6.57;;
48203;SDS011;33994;50.998;5.864;2023-12-14T14:00:37;10.27;;;6.07;;
48203;SDS011;33994;50.998;5.864;2023-12-14T14:03:41;10.80;;;7.13;;
48203;SDS011;33994;50.998;5.864;2023-12-14T14:06:44;14.43;;;7.45;;
48203;SDS011;33994;50.998;5.864;2023-12-14T14:09:49;12.38;;;7.03;;
48203;SDS011;33994;50.998;5.864;2023-12-14T14:12:52;14.35;;;7.78;;
48203;SDS011;33994;50.998;5.864;2023-12-14T14:15:56;11.68;;;6.70;;
48203;SDS011;33994;50.998;5.864;2023-12-14T14:18:59;12.30;;;6.88;;
48203;SDS011;33994;50.998;5.864;2023-12-14T14:22:03;13.88;;;6.97;;
48203;SDS011;33994;50.998;5.864;2023-12-14T14:25:07;13.20;;;7.10;;
48203;SDS011;33994;50.998;5.864;2023-12-14T14:28:11;13.90;;;7.38;;
48203;SDS011;33994;50.998;5.864;2023-12-14T14:31:15;11.77;;;6.47;;
48203;SDS011;33994;50.998;5.864;2023-12-14T14:34:18;13.50;;;7.65;;
48203;SDS011;33994;50.998;5.864;2023-12-14T14:37:21;12.13;;;7.15;;
48203;SDS011;33994;50.998;5.864;2023-12-14T14:40:26;13.02;;;7.28;;
48203;SDS011;33994;50.998;5.864;2023-12-14T14:43:29;12.40;;;7.65;;
48203;SDS011;33994;50.998;5.864;2023-12-14T14:46:32;13.80;;;7.53;;
48203;SDS011;33994;50.998;5.864;2023-12-14T14:49:36;13.75;;;7.38;;
48203;SDS011;33994;50.998;5.864;2023-12-14T14:52:39;12.75;;;6.78;;
48203;SDS011;33994;50.998;5.864;2023-12-14T14:55:44;12.93;;;7.30;;
48203;SDS011;33994;50.998;5.864;2023-12-14T14:58:47;13.73;;;7.63;;
48203;SDS011;33994;50.998;5.864;2023-12-14T15:01:50;14.05;;;7.10;;
48203;SDS011;33994;50.998;5.864;2023-12-14T15:04:54;15.68;;;7.78;;
48203;SDS011;33994;50.998;5.864;2023-12-14T15:07:57;13.00;;;8.05;;
48203;SDS011;33994;50.998;5.864;2023-12-14T15:11:01;12.07;;;7.50;;
48203;SDS011;33994;50.998;5.864;2023-12-14T15:14:04;15.45;;;8.20;;
48203;SDS011;33994;50.998;5.864;2023-12-14T15:17:07;11.20;;;7.30;;
48203;SDS011;33994;50.998;5.864;2023-12-14T15:20:11;14.05;;;7.25;;
48203;SDS011;33994;50.998;5.864;2023-12-14T15:23:14;14.70;;;7.50;;
48203;SDS011;33994;50.998;5.864;2023-12-14T15:26:18;13.25;;;8.13;;
48203;SDS011;33994;50.998;5.864;2023-12-14T15:29:22;16.67;;;8.63;;
48203;SDS011;33994;50.998;5.864;2023-12-14T15:32:25;14.23;;;9.15;;
48203;SDS011;33994;50.998;5.864;2023-12-14T15:35:28;13.60;;;8.32;;
48203;SDS011;33994;50.998;5.864;2023-12-14T15:38:31;14.25;;;9.13;;
48203;SDS011;33994;50.998;5.864;2023-12-14T15:41:36;13.52;;;8.45;;
48203;SDS011;33994;50.998;5.864;2023-12-14T15:44:39;11.68;;;7.70;;
48203;SDS011;33994;50.998;5.864;2023-12-14T15:47:42;13.25;;;8.52;;
48203;SDS011;33994;50.998;5.864;2023-12-14T15:50:45;11.93;;;7.75;;
48203;SDS011;33994;50.998;5.864;2023-12-14T15:53:49;13.65;;;8.40;;
48203;SDS011;33994;50.998;5.864;2023-12-14T15:56:53;15.45;;;8.73;;
48203;SDS011;33994;50.998;5.864;2023-12-14T15:59:56;15.85;;;9.23;;
48203;SDS011;33994;50.998;5.864;2023-12-14T16:03:00;16.88;;;9.10;;
48203;SDS011;33994;50.998;5.864;2023-12-14T16:06:03;18.70;;;9.50;;
48203;SDS011;33994;50.998;5.864;2023-12-14T16:09:06;18.35;;;8.57;;
48203;SDS011;33994;50.998;5.864;2023-12-14T16:12:11;15.93;;;8.43;;
48203;SDS011;33994;50.998;5.864;2023-12-14T16:15:14;16.90;;;9.50;;
48203;SDS011;33994;50.998;5.864;2023-12-14T16:18:18;15.55;;;8.60;;
48203;SDS011;33994;50.998;5.864;2023-12-14T16:21:21;16.83;;;8.52;;
48203;SDS011;33994;50.998;5.864;2023-12-14T16:24:24;15.85;;;9.27;;
48203;SDS011;33994;50.998;5.864;2023-12-14T16:27:29;19.63;;;8.77;;
48203;SDS011;33994;50.998;5.864;2023-12-14T16:30:32;18.80;;;9.82;;
48203;SDS011;33994;50.998;5.864;2023-12-14T16:33:36;15.95;;;9.20;;
48203;SDS011;33994;50.998;5.864;2023-12-14T16:36:40;20.98;;;11.73;;
48203;SDS011;33994;50.998;5.864;2023-12-14T16:39:43;17.48;;;10.15;;
48203;SDS011;33994;50.998;5.864;2023-12-14T16:42:48;17.38;;;9.55;;
48203;SDS011;33994;50.998;5.864;2023-12-14T16:45:51;18.45;;;10.57;;
48203;SDS011;33994;50.998;5.864;2023-12-14T16:48:54;19.23;;;9.90;;
48203;SDS011;33994;50.998;5.864;2023-12-14T16:51:58;20.20;;;10.65;;
48203;SDS011;33994;50.998;5.864;2023-12-14T16:55:01;22.10;;;10.63;;
48203;SDS011;33994;50.998;5.864;2023-12-14T16:58:06;21.02;;;11.95;;
48203;SDS011;33994;50.998;5.864;2023-12-14T17:01:09;17.98;;;10.43;;
48203;SDS011;33994;50.998;5.864;2023-12-14T17:04:12;21.65;;;11.80;;
48203;SDS011;33994;50.998;5.864;2023-12-14T17:07:16;18.92;;;10.48;;
48203;SDS011;33994;50.998;5.864;2023-12-14T17:10:19;24.02;;;12.75;;
48203;SDS011;33994;50.998;5.864;2023-12-14T17:13:23;20.02;;;11.20;;
48203;SDS011;33994;50.998;5.864;2023-12-14T17:16:27;21.45;;;11.68;;
48203;SDS011;33994;50.998;5.864;2023-12-14T17:19:30;24.63;;;12.77;;
48203;SDS011;33994;50.998;5.864;2023-12-14T17:22:33;26.23;;;13.25;;
48203;SDS011;33994;50.998;5.864;2023-12-14T17:25:36;22.38;;;13.18;;
48203;SDS011;33994;50.998;5.864;2023-12-14T17:28:43;24.50;;;12.38;;
48203;SDS011;33994;50.998;5.864;2023-12-14T17:31:47;21.50;;;12.60;;
48203;SDS011;33994;50.998;5.864;2023-12-14T17:34:51;22.88;;;12.18;;
48203;SDS011;33994;50.998;5.864;2023-12-14T17:37:53;22.45;;;12.88;;
48203;SDS011;33994;50.998;5.864;2023-12-14T17:40:56;24.05;;;12.93;;
48203;SDS011;33994;50.998;5.864;2023-12-14T17:44:01;28.67;;;14.00;;
48203;SDS011;33994;50.998;5.864;2023-12-14T17:47:04;27.83;;;14.07;;
48203;SDS011;33994;50.998;5.864;2023-12-14T17:50:07;31.92;;;15.15;;
48203;SDS011;33994;50.998;5.864;2023-12-14T17:53:11;35.05;;;16.15;;
48203;SDS011;33994;50.998;5.864;2023-12-14T17:56:15;31.13;;;15.70;;